Decoded Metar for PAYA (YAKUTAT in AK, USA) (IATA:YAK) | Meteo·Mobile Aviation Weather
aviador You're here:

PAYA Decoded Metar

YAKUTAT in AK, USA
Report Time2019-04-21 00:42:00
UTC Time2019-04-21 00:49:33
Flight Rules mvfr MVFR
Wind100° at 08 Gusting to 16 kt
W.Decomp.*RWY 11: 6.9 kt HW 4 kt LCW
RWY 02: 4.0 kt HW 6.9 kt RCW
Visibility9999 m
Phenomena:Light Rain
Clouds:Broken 014 Hf
Overcast 021 Hf
Expected CloudBase > 800 ft AGL from Temp-Dew spread
Ceiling1,400 ft
Temp06°C (ISA -9)
Dew Point04°C (87% RH)
AAT1.8°C
QNH1014 hPa
Density Alt-965 ft
Elevation36 ft
Report Wrong Elevation
Raw Report
PAYA 210042Z AUTO 10008G16KT 10SM -RA BKN014 OVC021 06/04 A2993
RMK AO2 RAB05 P0000 T00560039 TSNO=

Extra information for PAYA:More info

Metar Taf Metar & Taf Last 4 Metars F.Rules Stats Wind Profile Meteogram Temp Stats Airport Information Weather charts Add Link Nearby VenuesMetar ALERT Operation Metar Decoded Social comments

AIRNAV info for PAYA